Time;durP1;ratioP1;P1;durP2;ratioP2;P2;SDS_P1;SDS_P2;PMS_P1;PMS_P2;Temp;Humidity;BMP_temperature;BMP_pressure;BME280_temperature;BME280_humidity;BME280_pressure;Samples;Min_cycle;Max_cycle;Signal;HPM_P1;HPM_P2
2022/06/04 00:00:08;;;;;;;;;;;11.40;99.90;;;;;;5075757;28;19934;-74
2022/06/04 00:02:37;;;;;;;;;;;11.40;99.90;;;;;;5082760;28;19935;-72
2022/06/04 00:05:03;;;;;;;;;;;11.40;99.90;;;;;;5082538;28;19920;-73
2022/06/04 00:07:29;;;;;;;;;;;11.30;99.90;;;;;;5084774;28;19927;-72
2022/06/04 00:15:29;;;;;;;;;;;11.30;99.90;;;;;;5114731;27;19943;-71
2022/06/04 00:17:55;;;;;;;;;;;11.30;99.90;;;;;;5086573;28;20017;-71
2022/06/04 00:20:21;;;;;;;;;;;11.20;99.90;;;;;;5081100;28;20378;-71
2022/06/04 00:22:46;;;;;;;;;;;11.20;99.90;;;;;;5078370;28;19959;-72
2022/06/04 00:25:13;;;;;;;;;;;11.20;99.90;;;;;;5087494;28;20003;-69
2022/06/04 00:27:38;;;;;;;;;;;11.20;99.90;;;;;;5093351;28;19920;-71
2022/06/04 00:30:05;;;;;;;;;;;11.10;99.90;;;;;;5081711;28;19974;-71
2022/06/04 00:32:31;;;;;;;;;;;11.20;99.90;;;;;;5111205;27;20454;-71
2022/06/04 00:35:00;;;;;;;;;;;11.20;99.90;;;;;;5082043;28;19925;-72
2022/06/04 00:37:26;;;;;;;;;;;11.10;99.90;;;;;;5080298;28;19927;-70
2022/06/04 00:39:51;;;;;;;;;;;11.10;99.90;;;;;;5084402;28;20290;-74
2022/06/04 00:42:18;;;;;;;;;;;11.10;99.90;;;;;;5082778;28;20385;-71
2022/06/04 00:45:02;;;;;;;;;;;11.10;99.90;;;;;;5080542;28;19924;-70
2022/06/04 00:47:28;;;;;;;;;;;11.20;99.90;;;;;;5083688;28;19920;-75
2022/06/04 00:49:55;;;;;;;;;;;11.10;99.90;;;;;;5074848;28;19936;-71
2022/06/04 00:52:20;;;;;;;;;;;11.10;99.90;;;;;;5079465;28;19986;-71
2022/06/04 00:54:47;;;;;;;;;;;11.00;99.90;;;;;;5082404;28;19928;-73
2022/06/04 00:57:12;;;;;;;;;;;11.10;99.90;;;;;;5075227;28;20298;-72
2022/06/04 00:59:57;;;;;;;;;;;11.10;99.90;;;;;;5079117;28;19921;-75
2022/06/04 01:02:40;;;;;;;;;;;11.00;99.90;;;;;;5084130;28;19932;-71
2022/06/04 01:05:24;;;;;;;;;;;11.10;99.90;;;;;;5074267;28;19929;-71
2022/06/04 01:07:59;;;;;;;;;;;11.00;99.90;;;;;;5113094;27;19957;-73
2022/06/04 01:10:24;;;;;;;;;;;11.00;99.90;;;;;;5078985;28;20015;-72
2022/06/04 01:13:00;;;;;;;;;;;11.00;99.90;;;;;;5088676;28;20581;-71
2022/06/04 01:15:58;;;;;;;;;;;10.90;99.90;;;;;;5086980;28;20014;-71
2022/06/04 01:18:30;;;;;;;;;;;10.90;99.90;;;;;;5063180;28;20566;-71
2022/06/04 01:20:59;;;;;;;;;;;10.90;99.90;;;;;;5073642;28;20283;-75
2022/06/04 01:23:43;;;;;;;;;;;10.90;99.90;;;;;;5083204;28;19920;-73
2022/06/04 01:26:27;;;;;;;;;;;10.90;99.90;;;;;;5111948;27;19927;-75
2022/06/04 01:28:56;;;;;;;;;;;10.90;99.90;;;;;;5106067;27;20181;-73
2022/06/04 01:31:24;;;;;;;;;;;10.80;99.90;;;;;;5083386;28;19985;-71
2022/06/04 01:33:52;;;;;;;;;;;10.80;99.90;;;;;;5081434;28;19925;-72
2022/06/04 01:36:28;;;;;;;;;;;10.80;99.90;;;;;;5082941;28;19972;-69
2022/06/04 01:38:56;;;;;;;;;;;10.80;99.90;;;;;;5078564;28;19931;-73
2022/06/04 01:41:28;;;;;;;;;;;10.80;99.90;;;;;;5072466;28;20897;-75
2022/06/04 01:43:55;;;;;;;;;;;10.80;99.90;;;;;;5071373;28;20381;-73
2022/06/04 01:46:53;;;;;;;;;;;10.80;99.90;;;;;;5084410;28;19927;-71
2022/06/04 01:49:21;;;;;;;;;;;10.70;99.90;;;;;;5041813;28;20323;-74
2022/06/04 01:51:48;;;;;;;;;;;10.80;99.90;;;;;;5080201;28;19939;-75
2022/06/04 01:54:24;;;;;;;;;;;10.70;99.90;;;;;;5087409;28;20391;-74
2022/06/04 01:56:51;;;;;;;;;;;10.70;99.90;;;;;;5084336;28;19920;-72
2022/06/04 01:59:24;;;;;;;;;;;10.70;99.90;;;;;;5063747;28;20328;-71
2022/06/04 02:01:52;;;;;;;;;;;10.70;99.90;;;;;;5081533;28;19920;-71
2022/06/04 02:04:21;;;;;;;;;;;10.60;99.90;;;;;;5079629;28;19980;-73
2022/06/04 02:07:29;;;;;;;;;;;10.70;99.90;;;;;;5110650;27;19924;-72
2022/06/04 02:09:37;;;;;;;;;;;10.60;99.90;;;;;;5078999;28;19920;-72
2022/06/04 02:12:03;;;;;;;;;;;10.50;99.90;;;;;;5077994;28;19931;-72
2022/06/04 02:14:28;;;;;;;;;;;10.60;99.90;;;;;;5083470;28;19924;-74
2022/06/04 02:16:57;;;;;;;;;;;10.50;99.90;;;;;;5080973;28;19958;-72
2022/06/04 02:19:23;;;;;;;;;;;10.50;99.90;;;;;;5077819;28;20026;-72
2022/06/04 02:21:48;;;;;;;;;;;10.50;99.90;;;;;;5075067;28;20023;-72
2022/06/04 02:24:14;;;;;;;;;;;10.50;99.90;;;;;;5109010;27;19971;-72
2022/06/04 02:26:41;;;;;;;;;;;10.40;99.90;;;;;;5081790;28;20385;-70
2022/06/04 02:29:06;;;;;;;;;;;10.40;99.90;;;;;;5086706;28;19920;-72
2022/06/04 02:31:41;;;;;;;;;;;10.40;99.90;;;;;;5079439;28;19932;-73
2022/06/04 02:34:07;;;;;;;;;;;10.40;99.90;;;;;;5084540;28;20294;-71
2022/06/04 02:36:46;;;;;;;;;;;10.40;99.90;;;;;;5079255;28;19924;-72
2022/06/04 02:39:18;;;;;;;;;;;10.30;99.90;;;;;;5112588;27;19924;-72
2022/06/04 02:41:47;;;;;;;;;;;10.30;99.90;;;;;;5079536;28;19928;-73
2022/06/04 02:44:29;;;;;;;;;;;10.30;99.90;;;;;;5099868;27;19931;-71
2022/06/04 02:47:04;;;;;;;;;;;10.20;99.90;;;;;;5078251;28;20236;-72
2022/06/04 02:49:36;;;;;;;;;;;10.20;99.90;;;;;;5071328;28;19927;-71
2022/06/04 02:52:02;;;;;;;;;;;10.20;99.90;;;;;;5102931;28;19928;-71
2022/06/04 02:54:28;;;;;;;;;;;10.20;99.90;;;;;;5079558;28;20398;-73
2022/06/04 02:56:54;;;;;;;;;;;10.10;99.90;;;;;;5079513;28;20019;-73
2022/06/04 02:59:22;;;;;;;;;;;10.10;99.90;;;;;;5075605;28;19978;-71
2022/06/04 03:01:50;;;;;;;;;;;10.10;99.90;;;;;;5073828;28;19928;-73
2022/06/04 03:04:16;;;;;;;;;;;10.10;99.90;;;;;;5086725;28;21109;-70
2022/06/04 03:06:41;;;;;;;;;;;10.10;99.90;;;;;;5082307;28;19920;-72
2022/06/04 03:09:09;;;;;;;;;;;10.10;99.90;;;;;;5080245;28;20295;-74
2022/06/04 03:11:38;;;;;;;;;;;10.10;99.90;;;;;;5065788;28;19920;-71
2022/06/04 03:14:04;;;;;;;;;;;10.10;99.90;;;;;;5112214;27;20410;-72
2022/06/04 03:16:35;;;;;;;;;;;10.10;99.90;;;;;;5097800;28;19926;-75
2022/06/04 03:19:01;;;;;;;;;;;10.10;99.90;;;;;;5077589;28;20279;-71
2022/06/04 03:21:28;;;;;;;;;;;10.00;99.90;;;;;;5080731;28;19931;-70
2022/06/04 03:23:53;;;;;;;;;;;10.10;99.90;;;;;;5076003;28;19931;-72
2022/06/04 03:26:19;;;;;;;;;;;10.00;99.90;;;;;;5078463;28;20364;-72
2022/06/04 03:28:44;;;;;;;;;;;10.10;99.90;;;;;;5080317;28;19920;-73
2022/06/04 03:31:10;;;;;;;;;;;10.00;99.90;;;;;;5094096;28;20009;-69
2022/06/04 03:33:36;;;;;;;;;;;10.10;99.90;;;;;;5076361;28;19932;-70
2022/06/04 03:36:04;;;;;;;;;;;10.10;99.90;;;;;;5076661;28;21427;-71
2022/06/04 03:38:30;;;;;;;;;;;10.10;99.90;;;;;;5080570;28;19920;-72
2022/06/04 03:40:55;;;;;;;;;;;10.10;99.90;;;;;;5075442;28;19921;-73
2022/06/04 03:43:21;;;;;;;;;;;10.10;99.90;;;;;;5080981;28;19920;-70
2022/06/04 03:45:46;;;;;;;;;;;10.10;99.90;;;;;;5080201;28;19932;-71
2022/06/04 03:48:12;;;;;;;;;;;10.10;99.90;;;;;;5078852;28;20409;-73
2022/06/04 03:50:37;;;;;;;;;;;10.10;99.90;;;;;;5080759;28;19989;-73
2022/06/04 03:53:04;;;;;;;;;;;10.10;99.90;;;;;;5112236;28;19924;-73
2022/06/04 03:55:30;;;;;;;;;;;10.10;99.90;;;;;;5075521;28;19977;-69
2022/06/04 03:57:55;;;;;;;;;;;10.20;99.90;;;;;;5075503;28;19920;-74
2022/06/04 04:00:21;;;;;;;;;;;10.10;99.90;;;;;;5079419;28;19963;-72
2022/06/04 04:02:48;;;;;;;;;;;10.30;99.90;;;;;;5108767;28;20006;-72
2022/06/04 04:05:15;;;;;;;;;;;10.20;99.90;;;;;;5076238;28;19924;-71
2022/06/04 04:07:40;;;;;;;;;;;10.30;99.90;;;;;;5076986;28;20431;-70
2022/06/04 04:10:06;;;;;;;;;;;10.30;99.90;;;;;;5080116;28;19969;-71
2022/06/04 04:12:32;;;;;;;;;;;10.30;99.90;;;;;;5079551;28;20015;-72
2022/06/04 04:14:57;;;;;;;;;;;10.40;99.90;;;;;;5078838;28;20471;-69
2022/06/04 04:17:23;;;;;;;;;;;10.40;99.90;;;;;;5082029;28;20019;-70
2022/06/04 04:19:49;;;;;;;;;;;10.50;99.90;;;;;;5074663;28;20002;-72
2022/06/04 04:22:14;;;;;;;;;;;10.50;99.90;;;;;;5079342;28;20396;-72
2022/06/04 04:24:40;;;;;;;;;;;10.50;99.90;;;;;;5078819;28;19927;-72
2022/06/04 04:27:05;;;;;;;;;;;10.50;99.90;;;;;;5085319;28;20383;-72
2022/06/04 04:29:31;;;;;;;;;;;10.60;99.90;;;;;;5079250;28;19927;-68
2022/06/04 04:31:56;;;;;;;;;;;10.70;99.90;;;;;;5080576;28;20391;-73
2022/06/04 04:34:22;;;;;;;;;;;10.70;99.90;;;;;;5084067;28;19974;-73
2022/06/04 04:36:47;;;;;;;;;;;10.80;99.90;;;;;;5082679;28;20382;-71
2022/06/04 04:39:13;;;;;;;;;;;10.90;99.90;;;;;;5082148;28;19924;-69
2022/06/04 04:41:38;;;;;;;;;;;10.90;99.90;;;;;;5084747;28;19959;-72
2022/06/04 04:44:04;;;;;;;;;;;11.00;99.90;;;;;;5081902;28;19938;-70
2022/06/04 04:46:29;;;;;;;;;;;11.10;99.90;;;;;;5078649;28;19920;-73
2022/06/04 04:48:55;;;;;;;;;;;11.10;99.90;;;;;;5081698;28;19931;-72
2022/06/04 04:51:24;;;;;;;;;;;11.20;99.90;;;;;;5082224;28;19981;-72
2022/06/04 04:53:50;;;;;;;;;;;11.30;99.90;;;;;;5084354;28;20006;-69
2022/06/04 04:56:17;;;;;;;;;;;11.40;99.90;;;;;;5061593;28;19925;-71
2022/06/04 04:58:43;;;;;;;;;;;11.50;99.90;;;;;;5086527;28;19932;-72
2022/06/04 05:01:19;;;;;;;;;;;11.60;99.90;;;;;;5078574;28;19928;-73
2022/06/04 05:03:44;;;;;;;;;;;11.60;99.90;;;;;;5080500;28;19927;-70
2022/06/04 05:06:11;;;;;;;;;;;11.70;99.90;;;;;;5082099;28;19924;-72
2022/06/04 05:08:37;;;;;;;;;;;11.80;99.90;;;;;;5111778;27;19920;-71
2022/06/04 05:11:06;;;;;;;;;;;11.80;99.90;;;;;;5084521;28;19924;-69
2022/06/04 05:13:32;;;;;;;;;;;11.90;99.90;;;;;;5086578;28;20064;-73
2022/06/04 05:15:57;;;;;;;;;;;12.00;99.90;;;;;;5084191;28;20434;-71
2022/06/04 05:18:23;;;;;;;;;;;12.00;99.90;;;;;;5086298;28;19928;-70
2022/06/04 05:20:48;;;;;;;;;;;12.10;99.90;;;;;;5087240;28;20489;-72
2022/06/04 05:23:14;;;;;;;;;;;12.20;99.90;;;;;;5080285;28;19971;-70
2022/06/04 05:25:39;;;;;;;;;;;12.10;99.90;;;;;;5084131;28;20413;-75
2022/06/04 05:28:05;;;;;;;;;;;12.20;99.90;;;;;;5085882;28;19927;-72
2022/06/04 05:30:31;;;;;;;;;;;12.20;99.90;;;;;;5084189;28;19920;-72
2022/06/04 05:32:56;;;;;;;;;;;12.30;99.90;;;;;;5080983;28;19928;-74
2022/06/04 05:35:22;;;;;;;;;;;12.30;99.90;;;;;;5079936;28;19927;-73
2022/06/04 05:37:47;;;;;;;;;;;12.40;99.90;;;;;;5081831;28;19927;-69
2022/06/04 05:40:13;;;;;;;;;;;12.50;99.90;;;;;;5113214;27;19924;-71
2022/06/04 05:42:38;;;;;;;;;;;12.50;99.90;;;;;;5083160;28;19920;-71
2022/06/04 05:45:04;;;;;;;;;;;12.60;99.90;;;;;;5082670;28;20327;-71
2022/06/04 05:47:30;;;;;;;;;;;12.70;99.90;;;;;;5114243;27;20299;-72
2022/06/04 05:49:55;;;;;;;;;;;12.80;99.90;;;;;;5078723;28;19929;-71
2022/06/04 05:52:21;;;;;;;;;;;12.80;99.90;;;;;;5084933;28;19927;-73
2022/06/04 05:54:46;;;;;;;;;;;13.00;99.90;;;;;;5081610;28;20464;-71
2022/06/04 05:57:12;;;;;;;;;;;13.10;99.90;;;;;;5080748;28;20314;-70
2022/06/04 05:59:37;;;;;;;;;;;13.20;99.90;;;;;;5077551;28;20019;-71
2022/06/04 06:02:03;;;;;;;;;;;13.30;99.90;;;;;;5082341;27;20276;-72
2022/06/04 06:04:29;;;;;;;;;;;13.30;99.90;;;;;;5109873;27;20001;-70
2022/06/04 06:06:58;;;;;;;;;;;13.30;99.90;;;;;;5082667;28;19920;-73
2022/06/04 06:09:24;;;;;;;;;;;13.30;99.90;;;;;;5076083;28;19931;-71
2022/06/04 06:11:49;;;;;;;;;;;13.30;99.90;;;;;;5081666;28;19924;-73
2022/06/04 06:14:16;;;;;;;;;;;13.30;99.90;;;;;;5081379;28;20288;-74
2022/06/04 06:16:43;;;;;;;;;;;13.40;99.90;;;;;;5081732;28;19927;-70
2022/06/04 06:19:09;;;;;;;;;;;13.50;99.90;;;;;;5072683;28;19928;-71
2022/06/04 06:21:35;;;;;;;;;;;13.60;99.90;;;;;;5082180;28;19920;-71
2022/06/04 06:24:00;;;;;;;;;;;13.70;99.90;;;;;;5080535;28;19924;-72
2022/06/04 06:26:28;;;;;;;;;;;13.80;99.90;;;;;;5081392;28;20010;-71
2022/06/04 06:28:54;;;;;;;;;;;13.80;99.90;;;;;;5083176;28;19975;-72
2022/06/04 06:31:20;;;;;;;;;;;13.90;99.90;;;;;;5079734;28;20451;-70
2022/06/04 06:33:46;;;;;;;;;;;14.00;99.90;;;;;;5087372;28;19931;-71
2022/06/04 06:36:12;;;;;;;;;;;14.10;99.90;;;;;;5111180;27;20388;-67
2022/06/04 06:38:38;;;;;;;;;;;14.20;99.90;;;;;;5075975;28;20447;-69
2022/06/04 06:41:03;;;;;;;;;;;14.30;99.90;;;;;;5079738;28;20054;-72
2022/06/04 06:43:38;;;;;;;;;;;14.40;99.90;;;;;;5073576;28;19920;-71
2022/06/04 06:46:05;;;;;;;;;;;14.40;99.90;;;;;;5082141;28;19928;-71
2022/06/04 06:48:31;;;;;;;;;;;14.50;99.90;;;;;;5080751;28;20451;-73
2022/06/04 06:50:56;;;;;;;;;;;14.60;99.90;;;;;;5078908;28;20654;-73
2022/06/04 06:53:22;;;;;;;;;;;14.60;99.90;;;;;;5080694;28;19925;-70
2022/06/04 06:55:47;;;;;;;;;;;14.70;99.90;;;;;;5084956;28;19927;-74
2022/06/04 06:58:13;;;;;;;;;;;14.70;99.90;;;;;;5082344;28;19931;-72
2022/06/04 07:00:38;;;;;;;;;;;14.80;99.90;;;;;;5078620;28;19920;-71
2022/06/04 07:03:04;;;;;;;;;;;14.90;99.90;;;;;;5091145;28;19920;-73
2022/06/04 07:05:29;;;;;;;;;;;14.90;99.90;;;;;;5077262;28;19925;-71
2022/06/04 07:07:55;;;;;;;;;;;15.00;99.90;;;;;;5082059;28;19924;-69
2022/06/04 07:10:22;;;;;;;;;;;15.00;99.90;;;;;;5080280;28;19931;-70
2022/06/04 07:12:47;;;;;;;;;;;15.10;99.90;;;;;;5080562;28;19924;-71
2022/06/04 07:15:13;;;;;;;;;;;15.30;99.90;;;;;;5077623;28;20405;-72
2022/06/04 07:17:39;;;;;;;;;;;15.40;99.90;;;;;;5114173;27;20465;-72
2022/06/04 07:20:05;;;;;;;;;;;15.40;99.90;;;;;;5079386;28;19924;-69
2022/06/04 07:22:31;;;;;;;;;;;15.50;99.90;;;;;;5079122;28;19974;-69
2022/06/04 07:24:57;;;;;;;;;;;15.50;99.90;;;;;;5082347;28;19927;-75
2022/06/04 07:27:22;;;;;;;;;;;15.50;99.90;;;;;;5071091;28;19924;-74
2022/06/04 07:29:48;;;;;;;;;;;15.60;99.90;;;;;;5090165;28;19920;-74
2022/06/04 07:32:13;;;;;;;;;;;15.70;99.90;;;;;;5090494;28;20352;-71
2022/06/04 07:34:39;;;;;;;;;;;15.80;99.90;;;;;;5096819;28;19928;-71
2022/06/04 07:37:07;;;;;;;;;;;15.90;99.90;;;;;;5084584;28;19928;-72
2022/06/04 07:39:33;;;;;;;;;;;16.00;99.90;;;;;;5081702;28;19926;-74
2022/06/04 07:41:58;;;;;;;;;;;16.10;99.90;;;;;;5085441;28;20362;-72
2022/06/04 07:44:25;;;;;;;;;;;16.20;99.90;;;;;;5088248;28;20121;-72
2022/06/04 07:46:51;;;;;;;;;;;16.30;99.90;;;;;;5116870;28;19920;-76
2022/06/04 07:49:17;;;;;;;;;;;16.40;99.90;;;;;;5072495;28;20424;-73
2022/06/04 07:51:43;;;;;;;;;;;16.50;99.90;;;;;;5088806;28;19963;-72
2022/06/04 07:54:10;;;;;;;;;;;16.60;99.90;;;;;;5092016;28;19924;-68
2022/06/04 07:56:36;;;;;;;;;;;16.70;99.90;;;;;;5091365;28;20374;-73
2022/06/04 07:59:02;;;;;;;;;;;16.90;99.90;;;;;;5091146;28;19920;-73
2022/06/04 08:01:28;;;;;;;;;;;16.90;99.90;;;;;;5091947;28;20195;-73
2022/06/04 08:03:54;;;;;;;;;;;16.90;99.90;;;;;;5096118;28;19935;-71
2022/06/04 08:06:21;;;;;;;;;;;16.90;99.90;;;;;;5101510;28;19972;-72
2022/06/04 08:08:48;;;;;;;;;;;16.90;99.90;;;;;;5098633;28;19920;-74
2022/06/04 08:11:31;;;;;;;;;;;16.90;99.90;;;;;;5093004;28;19923;-70
2022/06/04 08:13:58;;;;;;;;;;;16.80;99.90;;;;;;5093298;28;19924;-72
2022/06/04 08:16:23;;;;;;;;;;;16.80;99.90;;;;;;5094878;28;19924;-72
2022/06/04 08:18:49;;;;;;;;;;;16.70;99.90;;;;;;5086650;28;19928;-73
2022/06/04 08:21:15;;;;;;;;;;;16.70;99.90;;;;;;5107182;28;19928;-70
2022/06/04 08:23:43;;;;;;;;;;;16.70;99.90;;;;;;5106913;28;19920;-74
2022/06/04 08:26:08;;;;;;;;;;;16.80;99.90;;;;;;5081212;28;19982;-72
2022/06/04 08:28:34;;;;;;;;;;;16.90;99.90;;;;;;5081311;28;20016;-72
2022/06/04 08:31:02;;;;;;;;;;;16.90;99.90;;;;;;5094266;28;19927;-71
2022/06/04 08:33:28;;;;;;;;;;;16.90;99.90;;;;;;5092989;28;19928;-74
2022/06/04 08:35:53;;;;;;;;;;;16.90;99.90;;;;;;5086702;28;20420;-73
2022/06/04 08:38:19;;;;;;;;;;;16.90;99.90;;;;;;5074399;28;20295;-72
2022/06/04 08:41:11;;;;;;;;;;;17.00;99.90;;;;;;5086877;28;20306;-71
2022/06/04 08:43:50;;;;;;;;;;;17.00;99.90;;;;;;5074045;28;20020;-70
2022/06/04 08:46:19;;;;;;;;;;;17.00;99.90;;;;;;5082026;28;20310;-72
2022/06/04 08:48:45;;;;;;;;;;;17.00;99.90;;;;;;5088678;28;19973;-75
2022/06/04 08:51:22;;;;;;;;;;;17.00;99.90;;;;;;5084151;28;20863;-71
2022/06/04 08:53:50;;;;;;;;;;;16.90;99.90;;;;;;5090215;28;19951;-70
2022/06/04 08:59:14;;;;;;;;;;;17.00;99.90;;;;;;5095400;28;19935;-74
2022/06/04 09:01:42;;;;;;;;;;;17.10;99.90;;;;;;5078652;28;20360;-69
2022/06/04 09:04:26;;;;;;;;;;;17.20;99.90;;;;;;5095560;28;19939;-70
2022/06/04 09:07:12;;;;;;;;;;;17.30;99.90;;;;;;5092655;28;19928;-73
2022/06/04 09:09:53;;;;;;;;;;;17.50;99.90;;;;;;5093529;28;19920;-69
2022/06/04 09:12:22;;;;;;;;;;;17.90;99.90;;;;;;5081271;28;19928;-73
2022/06/04 09:15:05;;;;;;;;;;;18.20;99.90;;;;;;5092902;28;19928;-69
2022/06/04 09:17:42;;;;;;;;;;;18.50;99.90;;;;;;5091951;28;20294;-68
2022/06/04 09:20:14;;;;;;;;;;;18.60;99.90;;;;;;5091769;28;19920;-73
2022/06/04 09:22:41;;;;;;;;;;;18.70;99.90;;;;;;5088812;28;19977;-72
2022/06/04 09:25:11;;;;;;;;;;;18.80;99.90;;;;;;5081712;28;19928;-70
2022/06/04 09:27:42;;;;;;;;;;;19.00;99.90;;;;;;5094792;28;19973;-73
2022/06/04 09:30:07;;;;;;;;;;;19.10;99.90;;;;;;5099638;28;19920;-72
2022/06/04 09:32:44;;;;;;;;;;;19.30;99.90;;;;;;5091833;28;20027;-71
2022/06/04 09:35:24;;;;;;;;;;;19.30;99.90;;;;;;5091108;28;20339;-73
2022/06/04 09:37:50;;;;;;;;;;;19.30;99.90;;;;;;5079768;28;19921;-75
2022/06/04 09:40:18;;;;;;;;;;;19.20;99.90;;;;;;5077369;28;19947;-76
2022/06/04 09:42:43;;;;;;;;;;;19.10;99.90;;;;;;5086299;28;19931;-74
2022/06/04 09:45:20;;;;;;;;;;;19.00;99.90;;;;;;5084584;28;19920;-72
2022/06/04 09:47:53;;;;;;;;;;;19.10;99.90;;;;;;5107975;27;19920;-75
2022/06/04 09:50:24;;;;;;;;;;;19.10;99.90;;;;;;5081780;28;20006;-70
2022/06/04 09:52:58;;;;;;;;;;;19.10;99.90;;;;;;5080161;28;20291;-73
2022/06/04 09:55:25;;;;;;;;;;;19.30;99.90;;;;;;5083120;28;19989;-72
2022/06/04 09:58:01;;;;;;;;;;;19.50;99.90;;;;;;5077340;28;19950;-73
2022/06/04 10:00:29;;;;;;;;;;;19.70;99.90;;;;;;5111261;27;19932;-73
2022/06/04 10:03:14;;;;;;;;;;;19.80;99.90;;;;;;5097618;27;20252;-73
2022/06/04 10:05:48;;;;;;;;;;;19.70;99.90;;;;;;5080779;28;19924;-73
2022/06/04 10:08:13;;;;;;;;;;;19.60;99.90;;;;;;5107245;27;19928;-74
2022/06/04 10:10:43;;;;;;;;;;;19.60;99.90;;;;;;5081265;28;19920;-72
2022/06/04 10:15:57;;;;;;;;;;;19.60;99.90;;;;;;5077923;28;20291;-74
2022/06/04 10:18:30;;;;;;;;;;;19.80;99.90;;;;;;5079476;28;19929;-72
2022/06/04 10:20:59;;;;;;;;;;;19.90;99.90;;;;;;5111433;27;19927;-71
2022/06/04 10:23:25;;;;;;;;;;;20.00;99.90;;;;;;5082175;28;20394;-73
2022/06/04 10:26:10;;;;;;;;;;;20.10;99.90;;;;;;5082725;28;19924;-70
2022/06/04 10:28:51;;;;;;;;;;;20.30;99.90;;;;;;5077260;28;19920;-73
2022/06/04 10:31:30;;;;;;;;;;;20.40;99.90;;;;;;5076421;28;19920;-74
2022/06/04 10:34:06;;;;;;;;;;;20.60;99.90;;;;;;5078791;28;19924;-71
2022/06/04 10:37:10;;;;;;;;;;;20.70;99.90;;;;;;5085645;28;19920;-72
2022/06/04 10:39:44;;;;;;;;;;;20.90;99.90;;;;;;5017400;28;19932;-74
2022/06/04 10:42:15;;;;;;;;;;;21.00;99.90;;;;;;5025318;28;19929;-68
2022/06/04 10:44:41;;;;;;;;;;;21.00;99.90;;;;;;5057394;28;19928;-71
2022/06/04 10:47:12;;;;;;;;;;;21.00;99.90;;;;;;5089360;28;20402;-71
2022/06/04 10:49:57;;;;;;;;;;;20.80;99.90;;;;;;5091296;28;19927;-74
2022/06/04 10:52:41;;;;;;;;;;;20.60;99.90;;;;;;5079148;28;20328;-70
2022/06/04 10:55:10;;;;;;;;;;;20.30;99.90;;;;;;5079528;28;20375;-73
2022/06/04 10:57:38;;;;;;;;;;;20.20;99.90;;;;;;5079762;28;20019;-74
2022/06/04 11:00:11;;;;;;;;;;;20.10;99.90;;;;;;5083135;28;19964;-73
2022/06/04 11:02:41;;;;;;;;;;;20.20;99.90;;;;;;5091886;28;20024;-72
2022/06/04 11:05:25;;;;;;;;;;;20.20;99.90;;;;;;5089627;28;19935;-70
2022/06/04 11:07:53;;;;;;;;;;;20.30;99.90;;;;;;5085158;28;19920;-72
2022/06/04 11:10:39;;;;;;;;;;;20.30;99.90;;;;;;5086275;28;20077;-70
2022/06/04 11:13:08;;;;;;;;;;;20.30;99.90;;;;;;5110117;27;19927;-71
2022/06/04 11:15:42;;;;;;;;;;;20.40;99.90;;;;;;5090017;28;19931;-71
2022/06/04 11:18:20;;;;;;;;;;;20.40;99.90;;;;;;5090584;28;19920;-73
2022/06/04 11:20:50;;;;;;;;;;;20.40;99.90;;;;;;5078070;28;19943;-70
2022/06/04 11:23:29;;;;;;;;;;;20.40;99.90;;;;;;5103894;28;19947;-71
2022/06/04 11:25:57;;;;;;;;;;;20.40;99.90;;;;;;5103735;28;20385;-72
2022/06/04 11:28:26;;;;;;;;;;;20.40;99.90;;;;;;5071074;28;19975;-72
2022/06/04 11:30:57;;;;;;;;;;;20.50;99.90;;;;;;5106810;28;20023;-75
2022/06/04 11:33:32;;;;;;;;;;;20.50;99.90;;;;;;5078033;28;19924;-75
2022/06/04 11:36:06;;;;;;;;;;;20.60;99.90;;;;;;5090385;28;20387;-75
2022/06/04 11:38:44;;;;;;;;;;;20.70;99.90;;;;;;5089624;28;20018;-73
2022/06/04 11:41:22;;;;;;;;;;;20.80;99.90;;;;;;5089148;28;20286;-74
2022/06/04 11:44:01;;;;;;;;;;;20.90;99.90;;;;;;5091397;28;19924;-72
2022/06/04 11:46:35;;;;;;;;;;;20.90;99.90;;;;;;5087761;28;20302;-74
2022/06/04 11:49:06;;;;;;;;;;;20.90;99.90;;;;;;5074126;28;20027;-73
2022/06/04 11:51:43;;;;;;;;;;;20.90;99.90;;;;;;5103633;28;19921;-75
2022/06/04 11:54:27;;;;;;;;;;;21.00;99.90;;;;;;5103518;28;19932;-76
2022/06/04 11:57:12;;;;;;;;;;;21.00;99.90;;;;;;5105475;28;19959;-71
2022/06/04 11:59:57;;;;;;;;;;;21.10;99.90;;;;;;5089391;28;20011;-74
2022/06/04 12:02:27;;;;;;;;;;;21.00;99.90;;;;;;5070814;28;19974;-71
2022/06/04 12:04:58;;;;;;;;;;;21.00;99.90;;;;;;5102749;28;19931;-69
2022/06/04 12:07:33;;;;;;;;;;;21.00;99.90;;;;;;5104191;28;20438;-76
2022/06/04 12:10:02;;;;;;;;;;;21.00;99.90;;;;;;5076590;28;19984;-72
2022/06/04 12:12:48;;;;;;;;;;;21.10;99.90;;;;;;5089706;28;19939;-72
2022/06/04 12:15:32;;;;;;;;;;;21.10;99.90;;;;;;5074948;28;19935;-71
2022/06/04 12:18:04;;;;;;;;;;;21.20;99.90;;;;;;5087063;28;19923;-71
2022/06/04 12:26:18;;;;;;;;;;;21.50;99.90;;;;;;5079242;28;19931;-75
2022/06/04 12:28:44;;;;;;;;;;;21.50;99.90;;;;;;5089129;28;19985;-76
2022/06/04 12:31:09;;;;;;;;;;;21.30;99.90;;;;;;5089803;28;19923;-74
2022/06/04 12:33:38;;;;;;;;;;;21.20;99.90;;;;;;5083069;28;19978;-73
2022/06/04 12:36:05;;;;;;;;;;;21.20;99.90;;;;;;5069265;28;19932;-72
2022/06/04 12:38:37;;;;;;;;;;;21.20;99.90;;;;;;5103361;28;19920;-71
2022/06/04 12:41:12;;;;;;;;;;;21.30;99.90;;;;;;5102518;28;19973;-71
2022/06/04 12:43:39;;;;;;;;;;;21.20;99.90;;;;;;5070547;28;20015;-70
2022/06/04 12:46:10;;;;;;;;;;;21.20;99.90;;;;;;5104948;28;20387;-71
2022/06/04 12:48:42;;;;;;;;;;;21.20;99.90;;;;;;5106251;28;20275;-73
2022/06/04 12:51:34;;;;;;;;;;;21.20;99.90;;;;;;5106075;28;20387;-74
2022/06/04 12:54:01;;;;;;;;;;;21.30;99.90;;;;;;5072754;28;20458;-74
2022/06/04 12:56:29;;;;;;;;;;;21.40;99.90;;;;;;5106424;28;20360;-71
2022/06/04 12:58:56;;;;;;;;;;;21.50;99.90;;;;;;5104857;28;20415;-75
2022/06/04 13:01:23;;;;;;;;;;;21.50;99.90;;;;;;5108671;28;19966;-71
2022/06/04 13:04:04;;;;;;;;;;;21.50;99.90;;;;;;5092604;28;20386;-76
2022/06/04 13:06:35;;;;;;;;;;;21.50;99.90;;;;;;5086565;28;20003;-73
2022/06/04 13:09:13;;;;;;;;;;;21.50;99.90;;;;;;5082769;28;20011;-73
2022/06/04 13:11:51;;;;;;;;;;;21.50;99.90;;;;;;5092643;28;20333;-74
2022/06/04 13:14:29;;;;;;;;;;;21.50;99.90;;;;;;5092068;28;19924;-73
2022/06/04 13:16:57;;;;;;;;;;;21.40;99.90;;;;;;5091729;28;20303;-71
2022/06/04 13:19:52;;;;;;;;;;;21.40;99.90;;;;;;5092029;28;19969;-74
2022/06/04 13:22:34;;;;;;;;;;;21.30;99.90;;;;;;5019507;28;19921;-74
2022/06/04 13:25:01;;;;;;;;;;;21.30;99.90;;;;;;5076122;28;20021;-74
2022/06/04 13:27:38;;;;;;;;;;;21.30;99.90;;;;;;5072007;28;19924;-72
2022/06/04 13:30:04;;;;;;;;;;;21.20;99.90;;;;;;5113982;27;19931;-71
2022/06/04 13:32:31;;;;;;;;;;;21.30;99.90;;;;;;5126180;27;19919;-70
2022/06/04 13:35:02;;;;;;;;;;;21.30;99.90;;;;;;5090768;28;20399;-71
2022/06/04 13:37:30;;;;;;;;;;;21.30;99.90;;;;;;5092064;28;19930;-71
2022/06/04 13:39:56;;;;;;;;;;;21.40;99.90;;;;;;5089833;28;19920;-72
2022/06/04 13:42:24;;;;;;;;;;;21.40;99.90;;;;;;5091968;28;19920;-74
2022/06/04 13:44:57;;;;;;;;;;;21.50;99.90;;;;;;5092922;28;19927;-73
2022/06/04 13:47:25;;;;;;;;;;;21.60;99.90;;;;;;5092089;28;19924;-74
2022/06/04 13:50:06;;;;;;;;;;;21.70;99.90;;;;;;5091190;28;20389;-73
2022/06/04 13:52:44;;;;;;;;;;;21.90;99.90;;;;;;5092027;28;19920;-70
2022/06/04 13:55:16;;;;;;;;;;;22.00;99.90;;;;;;5085542;28;19928;-73
2022/06/04 13:57:42;;;;;;;;;;;21.90;99.90;;;;;;5091951;28;20379;-71
2022/06/04 14:00:08;;;;;;;;;;;21.80;99.90;;;;;;5091117;28;19927;-71
2022/06/04 14:02:34;;;;;;;;;;;21.80;99.90;;;;;;5089429;28;20334;-74
2022/06/04 14:07:46;;;;;;;;;;;21.70;99.90;;;;;;5089268;28;20414;-73
2022/06/04 14:10:16;;;;;;;;;;;21.60;99.90;;;;;;5074053;28;19924;-72
2022/06/04 14:12:48;;;;;;;;;;;21.60;99.90;;;;;;5089302;28;19931;-71
2022/06/04 14:15:30;;;;;;;;;;;21.60;99.90;;;;;;5091268;28;20349;-72
2022/06/04 14:18:22;;;;;;;;;;;21.70;99.90;;;;;;5079860;28;19966;-75
2022/06/04 14:20:55;;;;;;;;;;;21.60;99.90;;;;;;5104258;28;19921;-71
2022/06/04 14:23:21;;;;;;;;;;;21.60;99.90;;;;;;5116638;27;19920;-70
2022/06/04 14:25:51;;;;;;;;;;;21.60;99.90;;;;;;5074472;28;19927;-71
2022/06/04 14:28:32;;;;;;;;;;;21.40;99.90;;;;;;5084923;28;19921;-72
2022/06/04 14:31:00;;;;;;;;;;;21.20;99.90;;;;;;5080891;28;20046;-70
2022/06/04 14:33:26;;;;;;;;;;;21.20;99.90;;;;;;5087387;28;19969;-72
2022/06/04 14:36:17;;;;;;;;;;;21.20;99.90;;;;;;5082656;28;20329;-73
2022/06/04 14:38:43;;;;;;;;;;;21.30;99.90;;;;;;5078708;28;19920;-72
2022/06/04 14:41:21;;;;;;;;;;;21.40;99.90;;;;;;5078924;28;19926;-71
2022/06/04 14:44:05;;;;;;;;;;;21.50;99.90;;;;;;5078005;28;19978;-75
2022/06/04 14:46:33;;;;;;;;;;;21.60;99.90;;;;;;5076648;28;19920;-73
2022/06/04 14:49:02;;;;;;;;;;;21.60;99.90;;;;;;5081050;28;19920;-76
2022/06/04 14:51:34;;;;;;;;;;;21.60;99.90;;;;;;5078655;28;20026;-72